sensor_id;sensor_type;location;lat;lon;timestamp;temperature;humidity
31661;DHT22;18267;52.234;7.444;2022-07-29T00:00:41;17.80;98.40
31661;DHT22;18267;52.234;7.444;2022-07-29T00:03:10;17.60;98.50
31661;DHT22;18267;52.234;7.444;2022-07-29T00:05:35;17.60;98.70
31661;DHT22;18267;52.234;7.444;2022-07-29T00:08:01;17.70;98.50
31661;DHT22;18267;52.234;7.444;2022-07-29T00:10:27;17.60;98.60
31661;DHT22;18267;52.234;7.444;2022-07-29T00:12:53;17.60;98.60
31661;DHT22;18267;52.234;7.444;2022-07-29T00:15:18;17.50;98.80
31661;DHT22;18267;52.234;7.444;2022-07-29T00:17:44;17.40;99.00
31661;DHT22;18267;52.234;7.444;2022-07-29T00:20:09;17.40;99.10
31661;DHT22;18267;52.234;7.444;2022-07-29T00:22:38;17.60;99.30
31661;DHT22;18267;52.234;7.444;2022-07-29T00:25:04;17.70;98.80
31661;DHT22;18267;52.234;7.444;2022-07-29T00:27:29;17.70;98.60
31661;DHT22;18267;52.234;7.444;2022-07-29T00:29:55;17.60;98.80
31661;DHT22;18267;52.234;7.444;2022-07-29T00:32:21;17.50;98.90
31661;DHT22;18267;52.234;7.444;2022-07-29T00:34:46;17.50;98.90
31661;DHT22;18267;52.234;7.444;2022-07-29T00:37:30;17.40;99.10
31661;DHT22;18267;52.234;7.444;2022-07-29T00:39:56;17.40;99.50
31661;DHT22;18267;52.234;7.444;2022-07-29T00:42:22;17.40;99.20
31661;DHT22;18267;52.234;7.444;2022-07-29T00:44:47;17.30;99.20
31661;DHT22;18267;52.234;7.444;2022-07-29T00:47:13;17.30;99.30
31661;DHT22;18267;52.234;7.444;2022-07-29T00:49:40;17.20;99.40
31661;DHT22;18267;52.234;7.444;2022-07-29T00:52:07;17.20;99.40
31661;DHT22;18267;52.234;7.444;2022-07-29T00:54:34;17.20;99.40
31661;DHT22;18267;52.234;7.444;2022-07-29T00:57:01;17.30;99.80
31661;DHT22;18267;52.234;7.444;2022-07-29T00:59:27;17.20;99.50
31661;DHT22;18267;52.234;7.444;2022-07-29T01:01:53;17.30;99.50
31661;DHT22;18267;52.234;7.444;2022-07-29T01:04:20;17.20;99.50
31661;DHT22;18267;52.234;7.444;2022-07-29T01:06:47;17.20;99.70
31661;DHT22;18267;52.234;7.444;2022-07-29T01:09:14;17.10;99.70
31661;DHT22;18267;52.234;7.444;2022-07-29T01:11:40;17.20;99.80
31661;DHT22;18267;52.234;7.444;2022-07-29T01:14:07;17.10;99.70
31661;DHT22;18267;52.234;7.444;2022-07-29T01:16:39;17.10;99.90
31661;DHT22;18267;52.234;7.444;2022-07-29T01:21:55;17.10;99.70
31661;DHT22;18267;52.234;7.444;2022-07-29T01:26:58;17.00;99.90
31661;DHT22;18267;52.234;7.444;2022-07-29T01:29:29;16.90;99.90
31661;DHT22;18267;52.234;7.444;2022-07-29T01:32:02;16.90;99.90
31661;DHT22;18267;52.234;7.444;2022-07-29T01:34:48;17.00;99.90
31661;DHT22;18267;52.234;7.444;2022-07-29T01:37:22;17.10;99.90
31661;DHT22;18267;52.234;7.444;2022-07-29T01:39:50;17.10;99.90
31661;DHT22;18267;52.234;7.444;2022-07-29T01:45:14;17.00;99.90
31661;DHT22;18267;52.234;7.444;2022-07-29T01:50:17;16.90;99.90
31661;DHT22;18267;52.234;7.444;2022-07-29T01:52:55;16.90;99.90
31661;DHT22;18267;52.234;7.444;2022-07-29T01:55:27;16.80;99.90
31661;DHT22;18267;52.234;7.444;2022-07-29T01:57:54;16.80;99.90
31661;DHT22;18267;52.234;7.444;2022-07-29T02:00:22;16.80;99.90
31661;DHT22;18267;52.234;7.444;2022-07-29T02:02:49;16.80;99.90
31661;DHT22;18267;52.234;7.444;2022-07-29T02:05:17;16.90;99.90
31661;DHT22;18267;52.234;7.444;2022-07-29T02:07:46;16.90;99.90
31661;DHT22;18267;52.234;7.444;2022-07-29T02:10:13;16.90;99.90
31661;DHT22;18267;52.234;7.444;2022-07-29T02:12:40;16.80;99.90
31661;DHT22;18267;52.234;7.444;2022-07-29T02:15:08;16.80;99.90
31661;DHT22;18267;52.234;7.444;2022-07-29T02:17:48;16.80;99.90
31661;DHT22;18267;52.234;7.444;2022-07-29T02:20:16;16.80;99.90
31661;DHT22;18267;52.234;7.444;2022-07-29T02:22:43;16.80;99.90
31661;DHT22;18267;52.234;7.444;2022-07-29T02:25:10;16.80;99.90
31661;DHT22;18267;52.234;7.444;2022-07-29T02:27:39;16.70;99.90
31661;DHT22;18267;52.234;7.444;2022-07-29T02:30:07;16.70;99.90
31661;DHT22;18267;52.234;7.444;2022-07-29T02:32:36;16.60;99.90
31661;DHT22;18267;52.234;7.444;2022-07-29T02:35:03;16.70;99.90
31661;DHT22;18267;52.234;7.444;2022-07-29T02:41:22;16.70;99.90
31661;DHT22;18267;52.234;7.444;2022-07-29T02:47:42;16.70;99.90
31661;DHT22;18267;52.234;7.444;2022-07-29T02:50:48;16.70;99.90
31661;DHT22;18267;52.234;7.444;2022-07-29T02:54:55;16.60;99.90
31661;DHT22;18267;52.234;7.444;2022-07-29T03:11:19;16.40;99.90
31661;DHT22;18267;52.234;7.444;2022-07-29T03:13:45;16.30;99.90
31661;DHT22;18267;52.234;7.444;2022-07-29T03:16:11;16.40;99.90
31661;DHT22;18267;52.234;7.444;2022-07-29T03:18:38;16.30;99.90
31661;DHT22;18267;52.234;7.444;2022-07-29T03:21:04;16.30;99.90
31661;DHT22;18267;52.234;7.444;2022-07-29T03:23:30;16.30;99.90
31661;DHT22;18267;52.234;7.444;2022-07-29T03:25:56;16.40;99.90
31661;DHT22;18267;52.234;7.444;2022-07-29T03:28:22;16.30;99.90
31661;DHT22;18267;52.234;7.444;2022-07-29T03:30:48;16.40;99.90
31661;DHT22;18267;52.234;7.444;2022-07-29T03:33:14;16.40;99.90
31661;DHT22;18267;52.234;7.444;2022-07-29T03:35:40;16.40;99.90
31661;DHT22;18267;52.234;7.444;2022-07-29T03:38:07;16.20;99.90
31661;DHT22;18267;52.234;7.444;2022-07-29T03:40:44;16.20;99.90
31661;DHT22;18267;52.234;7.444;2022-07-29T03:43:13;16.20;99.90
31661;DHT22;18267;52.234;7.444;2022-07-29T03:45:43;16.20;99.90
31661;DHT22;18267;52.234;7.444;2022-07-29T03:48:12;16.20;99.90
31661;DHT22;18267;52.234;7.444;2022-07-29T03:50:39;16.20;99.90
31661;DHT22;18267;52.234;7.444;2022-07-29T03:53:05;16.20;99.90
31661;DHT22;18267;52.234;7.444;2022-07-29T03:55:39;16.20;99.90
31661;DHT22;18267;52.234;7.444;2022-07-29T03:58:06;16.10;99.90
31661;DHT22;18267;52.234;7.444;2022-07-29T04:00:34;16.00;99.90
31661;DHT22;18267;52.234;7.444;2022-07-29T04:03:00;16.10;99.90
31661;DHT22;18267;52.234;7.444;2022-07-29T04:05:26;16.10;99.90
31661;DHT22;18267;52.234;7.444;2022-07-29T04:07:52;16.00;99.90
31661;DHT22;18267;52.234;7.444;2022-07-29T04:10:17;15.90;99.90
31661;DHT22;18267;52.234;7.444;2022-07-29T04:12:44;16.00;99.90
31661;DHT22;18267;52.234;7.444;2022-07-29T04:15:10;15.90;99.90
31661;DHT22;18267;52.234;7.444;2022-07-29T04:17:36;15.90;99.90
31661;DHT22;18267;52.234;7.444;2022-07-29T04:20:02;15.90;99.90
31661;DHT22;18267;52.234;7.444;2022-07-29T04:22:27;15.90;99.90
31661;DHT22;18267;52.234;7.444;2022-07-29T04:24:53;15.80;99.90
31661;DHT22;18267;52.234;7.444;2022-07-29T04:27:19;15.80;99.90
31661;DHT22;18267;52.234;7.444;2022-07-29T04:29:44;15.90;99.90
31661;DHT22;18267;52.234;7.444;2022-07-29T04:32:10;15.90;99.90
31661;DHT22;18267;52.234;7.444;2022-07-29T04:34:35;16.00;99.90
31661;DHT22;18267;52.234;7.444;2022-07-29T04:37:03;15.90;99.90
31661;DHT22;18267;52.234;7.444;2022-07-29T04:39:32;15.90;99.90
31661;DHT22;18267;52.234;7.444;2022-07-29T04:41:57;15.90;99.90
31661;DHT22;18267;52.234;7.444;2022-07-29T04:44:23;16.00;99.90
31661;DHT22;18267;52.234;7.444;2022-07-29T04:47:07;15.90;99.90
31661;DHT22;18267;52.234;7.444;2022-07-29T04:50:03;15.80;99.90
31661;DHT22;18267;52.234;7.444;2022-07-29T04:52:40;16.00;99.90
31661;DHT22;18267;52.234;7.444;2022-07-29T04:55:12;16.00;99.90
31661;DHT22;18267;52.234;7.444;2022-07-29T04:57:41;16.10;99.90
31661;DHT22;18267;52.234;7.444;2022-07-29T05:00:30;16.20;99.90
31661;DHT22;18267;52.234;7.444;2022-07-29T05:04:16;16.30;99.90
31661;DHT22;18267;52.234;7.444;2022-07-29T05:07:20;16.10;99.90
31661;DHT22;18267;52.234;7.444;2022-07-29T05:09:48;16.30;99.90
31661;DHT22;18267;52.234;7.444;2022-07-29T05:12:18;16.40;99.90
31661;DHT22;18267;52.234;7.444;2022-07-29T05:14:44;16.40;99.90
31661;DHT22;18267;52.234;7.444;2022-07-29T05:17:09;16.30;99.90
31661;DHT22;18267;52.234;7.444;2022-07-29T05:19:35;16.20;99.90
31661;DHT22;18267;52.234;7.444;2022-07-29T05:22:04;16.30;99.90
31661;DHT22;18267;52.234;7.444;2022-07-29T05:24:33;16.40;99.90
31661;DHT22;18267;52.234;7.444;2022-07-29T05:27:09;16.50;99.90
31661;DHT22;18267;52.234;7.444;2022-07-29T05:29:37;16.70;99.90
31661;DHT22;18267;52.234;7.444;2022-07-29T05:32:06;16.60;99.90
31661;DHT22;18267;52.234;7.444;2022-07-29T05:34:34;16.60;99.90
31661;DHT22;18267;52.234;7.444;2022-07-29T05:37:02;16.60;99.90
31661;DHT22;18267;52.234;7.444;2022-07-29T05:39:30;16.60;99.90
31661;DHT22;18267;52.234;7.444;2022-07-29T05:41:58;16.70;99.90
31661;DHT22;18267;52.234;7.444;2022-07-29T05:44:27;16.80;99.90
31661;DHT22;18267;52.234;7.444;2022-07-29T05:46:53;16.80;99.90
31661;DHT22;18267;52.234;7.444;2022-07-29T05:49:21;16.80;99.90
31661;DHT22;18267;52.234;7.444;2022-07-29T05:51:47;16.90;99.90
31661;DHT22;18267;52.234;7.444;2022-07-29T05:54:24;17.00;99.90
31661;DHT22;18267;52.234;7.444;2022-07-29T05:56:51;17.00;99.90
31661;DHT22;18267;52.234;7.444;2022-07-29T05:59:24;17.00;99.90
31661;DHT22;18267;52.234;7.444;2022-07-29T06:01:54;17.10;99.90
31661;DHT22;18267;52.234;7.444;2022-07-29T06:04:22;17.10;99.90
31661;DHT22;18267;52.234;7.444;2022-07-29T06:06:53;16.90;99.90
31661;DHT22;18267;52.234;7.444;2022-07-29T06:09:19;17.00;99.90
31661;DHT22;18267;52.234;7.444;2022-07-29T06:11:52;17.20;99.90
31661;DHT22;18267;52.234;7.444;2022-07-29T06:14:18;17.40;99.90
31661;DHT22;18267;52.234;7.444;2022-07-29T06:16:44;17.50;99.90
31661;DHT22;18267;52.234;7.444;2022-07-29T06:19:16;17.60;99.90
31661;DHT22;18267;52.234;7.444;2022-07-29T06:22:02;17.80;99.90
31661;DHT22;18267;52.234;7.444;2022-07-29T06:24:48;17.70;99.90
31661;DHT22;18267;52.234;7.444;2022-07-29T06:27:16;17.70;99.90
31661;DHT22;18267;52.234;7.444;2022-07-29T06:29:42;17.50;99.90
31661;DHT22;18267;52.234;7.444;2022-07-29T06:32:13;17.40;99.90
31661;DHT22;18267;52.234;7.444;2022-07-29T06:34:46;17.50;99.90
31661;DHT22;18267;52.234;7.444;2022-07-29T06:37:19;17.60;99.90
31661;DHT22;18267;52.234;7.444;2022-07-29T06:39:55;17.50;99.90
31661;DHT22;18267;52.234;7.444;2022-07-29T06:42:43;17.40;99.90
31661;DHT22;18267;52.234;7.444;2022-07-29T06:45:23;17.40;99.90
31661;DHT22;18267;52.234;7.444;2022-07-29T06:47:54;17.30;99.90
31661;DHT22;18267;52.234;7.444;2022-07-29T06:50:28;17.30;99.90
31661;DHT22;18267;52.234;7.444;2022-07-29T06:52:56;17.30;99.90
31661;DHT22;18267;52.234;7.444;2022-07-29T06:55:22;17.30;99.90
31661;DHT22;18267;52.234;7.444;2022-07-29T06:57:53;17.30;99.90
31661;DHT22;18267;52.234;7.444;2022-07-29T07:00:21;17.30;99.90
31661;DHT22;18267;52.234;7.444;2022-07-29T07:02:47;17.20;99.90
31661;DHT22;18267;52.234;7.444;2022-07-29T07:05:18;17.10;99.90
31661;DHT22;18267;52.234;7.444;2022-07-29T07:07:46;17.20;99.90
31661;DHT22;18267;52.234;7.444;2022-07-29T07:10:15;17.30;99.90
31661;DHT22;18267;52.234;7.444;2022-07-29T07:12:41;17.30;99.90
31661;DHT22;18267;52.234;7.444;2022-07-29T07:15:09;17.40;99.90
31661;DHT22;18267;52.234;7.444;2022-07-29T07:17:35;17.40;99.90
31661;DHT22;18267;52.234;7.444;2022-07-29T07:20:05;17.50;99.90
31661;DHT22;18267;52.234;7.444;2022-07-29T07:22:31;17.60;99.90
31661;DHT22;18267;52.234;7.444;2022-07-29T07:24:57;17.80;99.90
31661;DHT22;18267;52.234;7.444;2022-07-29T07:27:24;17.70;99.90
31661;DHT22;18267;52.234;7.444;2022-07-29T07:29:52;17.70;99.90
31661;DHT22;18267;52.234;7.444;2022-07-29T07:32:18;17.70;99.90
31661;DHT22;18267;52.234;7.444;2022-07-29T07:34:46;17.50;99.90
31661;DHT22;18267;52.234;7.444;2022-07-29T07:37:17;17.50;99.90
31661;DHT22;18267;52.234;7.444;2022-07-29T07:39:46;17.50;99.90
31661;DHT22;18267;52.234;7.444;2022-07-29T07:42:14;17.60;99.90
31661;DHT22;18267;52.234;7.444;2022-07-29T07:44:43;17.50;99.90
31661;DHT22;18267;52.234;7.444;2022-07-29T07:47:14;17.60;99.90
31661;DHT22;18267;52.234;7.444;2022-07-29T07:49:50;17.60;99.90
31661;DHT22;18267;52.234;7.444;2022-07-29T07:52:17;17.70;99.90
31661;DHT22;18267;52.234;7.444;2022-07-29T07:54:43;17.70;99.90
31661;DHT22;18267;52.234;7.444;2022-07-29T07:57:11;17.70;99.90
31661;DHT22;18267;52.234;7.444;2022-07-29T07:59:39;17.70;99.90
31661;DHT22;18267;52.234;7.444;2022-07-29T08:02:06;17.60;99.90
31661;DHT22;18267;52.234;7.444;2022-07-29T08:04:34;17.60;99.90
31661;DHT22;18267;52.234;7.444;2022-07-29T08:07:13;17.70;99.90
31661;DHT22;18267;52.234;7.444;2022-07-29T08:09:40;17.80;99.90
31661;DHT22;18267;52.234;7.444;2022-07-29T08:12:10;17.90;99.90
31661;DHT22;18267;52.234;7.444;2022-07-29T08:14:38;18.00;99.90
31661;DHT22;18267;52.234;7.444;2022-07-29T08:17:07;18.10;99.90
31661;DHT22;18267;52.234;7.444;2022-07-29T08:19:35;18.10;99.90
31661;DHT22;18267;52.234;7.444;2022-07-29T08:22:02;18.00;99.90
31661;DHT22;18267;52.234;7.444;2022-07-29T08:24:28;18.00;99.90
31661;DHT22;18267;52.234;7.444;2022-07-29T08:27:23;17.90;99.90
31661;DHT22;18267;52.234;7.444;2022-07-29T08:29:53;18.00;99.90
31661;DHT22;18267;52.234;7.444;2022-07-29T08:32:23;18.00;99.90
31661;DHT22;18267;52.234;7.444;2022-07-29T08:34:56;18.00;99.90
31661;DHT22;18267;52.234;7.444;2022-07-29T08:37:28;18.00;99.90
31661;DHT22;18267;52.234;7.444;2022-07-29T08:40:00;18.10;99.90
31661;DHT22;18267;52.234;7.444;2022-07-29T08:42:29;18.10;99.90
31661;DHT22;18267;52.234;7.444;2022-07-29T08:44:56;18.20;99.90
31661;DHT22;18267;52.234;7.444;2022-07-29T08:47:23;18.30;99.90
31661;DHT22;18267;52.234;7.444;2022-07-29T08:49:56;18.40;99.90
31661;DHT22;18267;52.234;7.444;2022-07-29T08:52:25;18.40;99.90
31661;DHT22;18267;52.234;7.444;2022-07-29T08:54:55;18.30;99.90
31661;DHT22;18267;52.234;7.444;2022-07-29T08:57:24;18.30;99.90
31661;DHT22;18267;52.234;7.444;2022-07-29T09:02:54;18.30;99.90
31661;DHT22;18267;52.234;7.444;2022-07-29T09:05:28;18.20;99.90
31661;DHT22;18267;52.234;7.444;2022-07-29T09:07:55;18.20;99.90
31661;DHT22;18267;52.234;7.444;2022-07-29T09:10:21;18.10;99.90
31661;DHT22;18267;52.234;7.444;2022-07-29T09:12:49;18.20;99.90
31661;DHT22;18267;52.234;7.444;2022-07-29T09:15:15;18.20;99.90
31661;DHT22;18267;52.234;7.444;2022-07-29T09:17:48;18.20;99.90
31661;DHT22;18267;52.234;7.444;2022-07-29T09:20:24;18.30;99.90
31661;DHT22;18267;52.234;7.444;2022-07-29T09:23:10;18.20;99.90
31661;DHT22;18267;52.234;7.444;2022-07-29T09:25:40;18.40;99.90
31661;DHT22;18267;52.234;7.444;2022-07-29T09:28:12;18.40;99.90
31661;DHT22;18267;52.234;7.444;2022-07-29T09:31:10;18.40;99.90
31661;DHT22;18267;52.234;7.444;2022-07-29T09:33:38;18.40;99.90
31661;DHT22;18267;52.234;7.444;2022-07-29T09:36:09;18.40;99.90
31661;DHT22;18267;52.234;7.444;2022-07-29T09:38:37;18.40;99.90
31661;DHT22;18267;52.234;7.444;2022-07-29T09:41:04;18.50;99.90
31661;DHT22;18267;52.234;7.444;2022-07-29T09:43:35;18.50;99.90
31661;DHT22;18267;52.234;7.444;2022-07-29T09:46:11;18.60;99.90
31661;DHT22;18267;52.234;7.444;2022-07-29T09:49:09;18.60;99.90
31661;DHT22;18267;52.234;7.444;2022-07-29T09:51:38;18.50;99.90
31661;DHT22;18267;52.234;7.444;2022-07-29T09:56:48;18.50;99.90
31661;DHT22;18267;52.234;7.444;2022-07-29T09:59:17;18.50;99.90
31661;DHT22;18267;52.234;7.444;2022-07-29T10:01:48;18.50;99.90
31661;DHT22;18267;52.234;7.444;2022-07-29T10:04:18;18.40;99.90
31661;DHT22;18267;52.234;7.444;2022-07-29T10:07:06;18.40;99.90
31661;DHT22;18267;52.234;7.444;2022-07-29T10:09:33;18.40;99.90
31661;DHT22;18267;52.234;7.444;2022-07-29T10:12:10;18.40;99.90
31661;DHT22;18267;52.234;7.444;2022-07-29T10:14:39;18.40;99.90
31661;DHT22;18267;52.234;7.444;2022-07-29T10:17:06;18.40;99.90
31661;DHT22;18267;52.234;7.444;2022-07-29T10:19:36;18.40;99.90
31661;DHT22;18267;52.234;7.444;2022-07-29T10:22:07;18.40;99.90
31661;DHT22;18267;52.234;7.444;2022-07-29T10:24:39;18.50;99.90
31661;DHT22;18267;52.234;7.444;2022-07-29T10:27:08;18.50;99.90
31661;DHT22;18267;52.234;7.444;2022-07-29T10:29:40;18.50;99.90
31661;DHT22;18267;52.234;7.444;2022-07-29T10:32:08;18.60;99.90
31661;DHT22;18267;52.234;7.444;2022-07-29T10:35:01;18.60;99.90
31661;DHT22;18267;52.234;7.444;2022-07-29T10:43:35;18.60;99.90
31661;DHT22;18267;52.234;7.444;2022-07-29T10:46:06;18.60;99.90
31661;DHT22;18267;52.234;7.444;2022-07-29T10:48:32;18.60;99.90
31661;DHT22;18267;52.234;7.444;2022-07-29T10:51:03;18.70;99.90
31661;DHT22;18267;52.234;7.444;2022-07-29T10:53:52;18.60;99.90
31661;DHT22;18267;52.234;7.444;2022-07-29T10:56:26;18.60;99.90
31661;DHT22;18267;52.234;7.444;2022-07-29T11:01:49;18.60;99.90
31661;DHT22;18267;52.234;7.444;2022-07-29T11:04:18;18.60;99.90
31661;DHT22;18267;52.234;7.444;2022-07-29T11:09:30;18.50;99.90
31661;DHT22;18267;52.234;7.444;2022-07-29T11:11:59;18.50;99.90
31661;DHT22;18267;52.234;7.444;2022-07-29T11:17:19;18.40;99.90
31661;DHT22;18267;52.234;7.444;2022-07-29T11:19:45;18.40;99.90
31661;DHT22;18267;52.234;7.444;2022-07-29T11:22:11;18.40;99.90
31661;DHT22;18267;52.234;7.444;2022-07-29T11:24:40;18.40;99.90
31661;DHT22;18267;52.234;7.444;2022-07-29T11:27:14;18.40;99.90
31661;DHT22;18267;52.234;7.444;2022-07-29T11:29:55;18.40;99.90
31661;DHT22;18267;52.234;7.444;2022-07-29T11:32:24;18.40;99.90
31661;DHT22;18267;52.234;7.444;2022-07-29T11:35:14;18.40;99.90
31661;DHT22;18267;52.234;7.444;2022-07-29T11:37:40;18.40;99.90
31661;DHT22;18267;52.234;7.444;2022-07-29T11:45:07;18.50;99.90
31661;DHT22;18267;52.234;7.444;2022-07-29T11:47:37;18.50;99.90
31661;DHT22;18267;52.234;7.444;2022-07-29T11:50:12;18.50;99.90
31661;DHT22;18267;52.234;7.444;2022-07-29T11:55:17;18.60;99.90
31661;DHT22;18267;52.234;7.444;2022-07-29T11:57:57;18.60;99.90
31661;DHT22;18267;52.234;7.444;2022-07-29T12:00:31;18.60;99.90
31661;DHT22;18267;52.234;7.444;2022-07-29T12:02:59;18.60;99.90
31661;DHT22;18267;52.234;7.444;2022-07-29T12:05:37;18.60;99.90
31661;DHT22;18267;52.234;7.444;2022-07-29T12:08:12;18.50;99.90
31661;DHT22;18267;52.234;7.444;2022-07-29T12:10:39;18.50;99.90
31661;DHT22;18267;52.234;7.444;2022-07-29T12:13:07;18.60;99.90
31661;DHT22;18267;52.234;7.444;2022-07-29T12:15:34;18.50;99.90
31661;DHT22;18267;52.234;7.444;2022-07-29T12:18:18;18.60;99.90
31661;DHT22;18267;52.234;7.444;2022-07-29T12:20:46;18.70;99.90
31661;DHT22;18267;52.234;7.444;2022-07-29T12:23:12;18.70;99.90
31661;DHT22;18267;52.234;7.444;2022-07-29T12:25:40;18.80;99.90
31661;DHT22;18267;52.234;7.444;2022-07-29T12:28:07;18.80;99.90
31661;DHT22;18267;52.234;7.444;2022-07-29T12:30:42;18.90;99.90
31661;DHT22;18267;52.234;7.444;2022-07-29T12:33:20;19.00;99.90
31661;DHT22;18267;52.234;7.444;2022-07-29T12:35:51;19.10;99.90
31661;DHT22;18267;52.234;7.444;2022-07-29T12:38:18;19.10;99.90
31661;DHT22;18267;52.234;7.444;2022-07-29T12:40:48;19.20;99.90
31661;DHT22;18267;52.234;7.444;2022-07-29T12:43:18;19.40;99.90
31661;DHT22;18267;52.234;7.444;2022-07-29T12:45:46;19.30;99.90
31661;DHT22;18267;52.234;7.444;2022-07-29T12:48:57;19.40;99.90
31661;DHT22;18267;52.234;7.444;2022-07-29T12:51:10;19.60;99.90
31661;DHT22;18267;52.234;7.444;2022-07-29T12:54:08;19.70;99.90
31661;DHT22;18267;52.234;7.444;2022-07-29T12:56:44;19.90;99.90
31661;DHT22;18267;52.234;7.444;2022-07-29T12:59:20;20.10;99.90
31661;DHT22;18267;52.234;7.444;2022-07-29T13:01:55;20.10;99.90
31661;DHT22;18267;52.234;7.444;2022-07-29T13:04:29;20.20;99.90
31661;DHT22;18267;52.234;7.444;2022-07-29T13:07:05;20.30;99.90
31661;DHT22;18267;52.234;7.444;2022-07-29T13:09:42;20.30;99.90
31661;DHT22;18267;52.234;7.444;2022-07-29T13:12:09;20.20;99.90
31661;DHT22;18267;52.234;7.444;2022-07-29T13:14:41;20.10;99.90
31661;DHT22;18267;52.234;7.444;2022-07-29T13:19:41;20.10;99.90
31661;DHT22;18267;52.234;7.444;2022-07-29T13:22:10;20.10;99.90
31661;DHT22;18267;52.234;7.444;2022-07-29T13:25:00;20.10;99.90
31661;DHT22;18267;52.234;7.444;2022-07-29T13:27:34;20.20;99.90
31661;DHT22;18267;52.234;7.444;2022-07-29T13:30:11;20.00;99.90
31661;DHT22;18267;52.234;7.444;2022-07-29T13:32:37;19.80;99.90
31661;DHT22;18267;52.234;7.444;2022-07-29T13:35:07;19.80;99.90
31661;DHT22;18267;52.234;7.444;2022-07-29T13:37:36;19.80;99.90
31661;DHT22;18267;52.234;7.444;2022-07-29T13:40:09;19.70;99.90
31661;DHT22;18267;52.234;7.444;2022-07-29T13:42:40;19.70;99.90
31661;DHT22;18267;52.234;7.444;2022-07-29T13:45:09;19.80;99.90
31661;DHT22;18267;52.234;7.444;2022-07-29T13:47:35;19.70;99.90
31661;DHT22;18267;52.234;7.444;2022-07-29T13:50:08;19.80;99.90
31661;DHT22;18267;52.234;7.444;2022-07-29T13:52:36;19.80;99.90
31661;DHT22;18267;52.234;7.444;2022-07-29T13:55:07;19.70;99.90
31661;DHT22;18267;52.234;7.444;2022-07-29T13:57:33;19.80;99.90
31661;DHT22;18267;52.234;7.444;2022-07-29T13:59:59;19.80;99.90
31661;DHT22;18267;52.234;7.444;2022-07-29T14:02:24;19.80;99.90
31661;DHT22;18267;52.234;7.444;2022-07-29T14:04:50;19.90;99.90
31661;DHT22;18267;52.234;7.444;2022-07-29T14:07:16;20.00;99.90
31661;DHT22;18267;52.234;7.444;2022-07-29T14:09:42;20.00;99.90
31661;DHT22;18267;52.234;7.444;2022-07-29T14:12:08;20.00;99.90
31661;DHT22;18267;52.234;7.444;2022-07-29T14:14:38;20.10;99.90
31661;DHT22;18267;52.234;7.444;2022-07-29T14:17:04;20.20;99.90
31661;DHT22;18267;52.234;7.444;2022-07-29T14:19:31;20.30;99.90
31661;DHT22;18267;52.234;7.444;2022-07-29T14:22:01;20.50;99.90
31661;DHT22;18267;52.234;7.444;2022-07-29T14:24:35;20.80;99.90
31661;DHT22;18267;52.234;7.444;2022-07-29T14:27:05;21.00;99.90
31661;DHT22;18267;52.234;7.444;2022-07-29T14:29:38;21.20;99.90
31661;DHT22;18267;52.234;7.444;2022-07-29T14:32:09;21.40;99.90
31661;DHT22;18267;52.234;7.444;2022-07-29T14:34:40;21.50;99.90
31661;DHT22;18267;52.234;7.444;2022-07-29T14:37:08;21.60;99.90
31661;DHT22;18267;52.234;7.444;2022-07-29T14:39:35;21.60;99.90
31661;DHT22;18267;52.234;7.444;2022-07-29T14:42:01;21.60;99.90
31661;DHT22;18267;52.234;7.444;2022-07-29T14:44:27;21.60;99.90
31661;DHT22;18267;52.234;7.444;2022-07-29T14:46:59;21.70;99.90
31661;DHT22;18267;52.234;7.444;2022-07-29T14:49:26;21.80;98.50
31661;DHT22;18267;52.234;7.444;2022-07-29T14:51:52;21.80;99.90
31661;DHT22;18267;52.234;7.444;2022-07-29T14:54:20;22.00;99.30
31661;DHT22;18267;52.234;7.444;2022-07-29T14:56:49;22.10;99.00
31661;DHT22;18267;52.234;7.444;2022-07-29T14:59:19;22.10;98.00
31661;DHT22;18267;52.234;7.444;2022-07-29T15:01:54;22.10;98.00
31661;DHT22;18267;52.234;7.444;2022-07-29T15:04:40;22.00;98.60
31661;DHT22;18267;52.234;7.444;2022-07-29T15:07:11;22.10;98.10
31661;DHT22;18267;52.234;7.444;2022-07-29T15:09:37;22.20;98.20
31661;DHT22;18267;52.234;7.444;2022-07-29T15:12:03;22.10;98.40
31661;DHT22;18267;52.234;7.444;2022-07-29T15:14:29;22.10;98.70
31661;DHT22;18267;52.234;7.444;2022-07-29T15:16:55;22.10;97.90
31661;DHT22;18267;52.234;7.444;2022-07-29T15:19:23;22.10;97.40
31661;DHT22;18267;52.234;7.444;2022-07-29T15:21:52;22.00;97.90
31661;DHT22;18267;52.234;7.444;2022-07-29T15:24:19;22.20;96.90
31661;DHT22;18267;52.234;7.444;2022-07-29T15:26:45;22.30;97.00
31661;DHT22;18267;52.234;7.444;2022-07-29T15:29:11;22.40;97.00
31661;DHT22;18267;52.234;7.444;2022-07-29T15:31:37;22.50;96.80
31661;DHT22;18267;52.234;7.444;2022-07-29T15:34:03;22.50;96.60
31661;DHT22;18267;52.234;7.444;2022-07-29T15:36:28;22.60;97.00
31661;DHT22;18267;52.234;7.444;2022-07-29T15:38:54;22.60;96.70
31661;DHT22;18267;52.234;7.444;2022-07-29T15:41:21;22.70;96.60
31661;DHT22;18267;52.234;7.444;2022-07-29T15:43:47;22.70;97.20
31661;DHT22;18267;52.234;7.444;2022-07-29T15:46:17;22.80;96.50
31661;DHT22;18267;52.234;7.444;2022-07-29T15:49:03;22.70;96.70
31661;DHT22;18267;52.234;7.444;2022-07-29T15:51:29;22.80;96.40
31661;DHT22;18267;52.234;7.444;2022-07-29T15:53:55;22.70;96.40
31661;DHT22;18267;52.234;7.444;2022-07-29T15:56:23;22.70;96.40
31661;DHT22;18267;52.234;7.444;2022-07-29T15:58:49;22.70;96.20
31661;DHT22;18267;52.234;7.444;2022-07-29T16:01:18;22.80;96.40
31661;DHT22;18267;52.234;7.444;2022-07-29T16:03:55;22.70;96.10
31661;DHT22;18267;52.234;7.444;2022-07-29T16:06:24;22.70;96.50
31661;DHT22;18267;52.234;7.444;2022-07-29T16:08:50;22.80;96.20
31661;DHT22;18267;52.234;7.444;2022-07-29T16:11:19;22.90;96.10
31661;DHT22;18267;52.234;7.444;2022-07-29T16:13:50;22.90;96.40
31661;DHT22;18267;52.234;7.444;2022-07-29T16:16:16;22.90;95.90
31661;DHT22;18267;52.234;7.444;2022-07-29T16:18:43;22.90;96.00
31661;DHT22;18267;52.234;7.444;2022-07-29T16:21:09;22.90;95.80
31661;DHT22;18267;52.234;7.444;2022-07-29T16:23:34;22.90;96.00
31661;DHT22;18267;52.234;7.444;2022-07-29T16:26:00;22.90;96.10
31661;DHT22;18267;52.234;7.444;2022-07-29T16:28:27;22.90;96.20
31661;DHT22;18267;52.234;7.444;2022-07-29T16:30:55;22.80;96.50
31661;DHT22;18267;52.234;7.444;2022-07-29T16:33:21;22.80;96.40
31661;DHT22;18267;52.234;7.444;2022-07-29T16:35:48;22.80;96.20
31661;DHT22;18267;52.234;7.444;2022-07-29T16:38:22;22.80;95.90
31661;DHT22;18267;52.234;7.444;2022-07-29T16:40:53;22.80;95.70
31661;DHT22;18267;52.234;7.444;2022-07-29T16:43:22;22.80;95.90
31661;DHT22;18267;52.234;7.444;2022-07-29T16:45:56;22.70;96.10
31661;DHT22;18267;52.234;7.444;2022-07-29T16:48:29;22.80;95.70
31661;DHT22;18267;52.234;7.444;2022-07-29T16:50:55;22.70;95.60
31661;DHT22;18267;52.234;7.444;2022-07-29T16:53:21;22.70;95.80